createdAt,value
2023-02-17T00:00:53.576Z,68.27
2023-02-17T00:03:18.889Z,68.16
2023-02-17T00:04:29.072Z,68.06
2023-02-17T00:05:42.116Z,68.10
2023-02-17T00:06:50.905Z,68.28
2023-02-17T00:08:00.384Z,68.17
2023-02-17T00:09:08.893Z,68.21
2023-02-17T00:10:20.428Z,68.09
2023-02-17T00:11:29.419Z,68.03
2023-02-17T00:12:40.583Z,68.10
2023-02-17T00:15:06.597Z,68.29
2023-02-17T00:16:19.782Z,68.18
2023-02-17T00:17:30.336Z,68.04
2023-02-17T00:18:39.726Z,68.01
2023-02-17T00:19:48.255Z,67.95
2023-02-17T00:20:57.798Z,67.81
2023-02-17T00:22:07.262Z,67.95
2023-02-17T00:23:16.618Z,67.83
2023-02-17T00:24:29.513Z,67.84
2023-02-17T00:25:39.596Z,67.95
2023-02-17T00:26:49.924Z,68.02
2023-02-17T00:28:00.853Z,68.02
2023-02-17T00:29:10.511Z,68.16
2023-02-17T00:30:20.558Z,67.80
2023-02-17T00:31:29.183Z,67.94
2023-02-17T00:33:56.613Z,68.38
2023-02-17T00:35:07.232Z,68.50
2023-02-17T00:37:35.829Z,68.29
2023-02-17T00:38:46.018Z,68.41
2023-02-17T00:41:11.110Z,67.79
2023-02-17T00:42:19.737Z,68.02
2023-02-17T00:43:30.641Z,67.94
2023-02-17T00:44:39.047Z,67.77
2023-02-17T00:45:47.898Z,67.87
2023-02-17T00:46:57.135Z,67.89
2023-02-17T00:48:05.776Z,67.97
2023-02-17T00:49:20.921Z,67.80
2023-02-17T00:50:32.244Z,67.63
2023-02-17T00:51:42.631Z,67.61
2023-02-17T00:52:52.004Z,67.85
2023-02-17T00:54:01.456Z,67.48
2023-02-17T00:55:11.107Z,67.53
2023-02-17T00:56:21.741Z,67.37
2023-02-17T00:57:32.839Z,67.48
2023-02-17T00:58:43.879Z,67.47
2023-02-17T00:59:53.442Z,67.16
2023-02-17T01:01:02.622Z,67.14
2023-02-17T01:03:27.954Z,67.25
2023-02-17T01:04:37.399Z,67.17
2023-02-17T01:05:48.280Z,67.13
2023-02-17T01:06:57.579Z,67.16
2023-02-17T01:08:06.083Z,67.16
2023-02-17T01:09:17.121Z,66.99
2023-02-17T01:10:27.573Z,66.82
2023-02-17T01:11:38.013Z,67.08
2023-02-17T01:12:46.937Z,67.07
2023-02-17T01:13:57.215Z,67.21
2023-02-17T01:15:09.667Z,67.25
2023-02-17T01:17:42.307Z,66.99
2023-02-17T01:18:50.937Z,67.26
2023-02-17T01:20:01.521Z,67.42
2023-02-17T01:22:38.231Z,67.65
2023-02-17T01:25:07.717Z,67.50
2023-02-17T01:26:22.067Z,67.54
2023-02-17T01:27:31.740Z,67.26
2023-02-17T01:28:40.740Z,67.28
2023-02-17T01:29:49.673Z,67.22
2023-02-17T01:30:59.410Z,67.38
2023-02-17T01:32:08.250Z,67.37
2023-02-17T01:33:17.269Z,67.14
2023-02-17T01:34:27.801Z,67.15
2023-02-17T01:35:38.443Z,67.04
2023-02-17T01:36:47.333Z,66.92
2023-02-17T01:37:55.892Z,66.95
2023-02-17T01:39:05.610Z,66.82
2023-02-17T01:40:17.470Z,66.84
2023-02-17T01:42:43.263Z,66.59
2023-02-17T01:44:23.396Z,66.35
2023-02-17T01:47:17.354Z,66.79
2023-02-17T01:49:50.792Z,66.91
2023-02-17T01:51:08.445Z,66.91
2023-02-17T01:55:05.013Z,66.29
2023-02-17T01:56:17.052Z,66.38
2023-02-17T01:57:30.214Z,66.27
2023-02-17T01:58:44.041Z,66.04
2023-02-17T02:01:10.499Z,65.91
2023-02-17T02:02:20.290Z,65.86
2023-02-17T02:03:33.377Z,65.75
2023-02-17T02:04:45.520Z,65.41
2023-02-17T02:05:55.556Z,65.17
2023-02-17T02:08:23.456Z,65.17
2023-02-17T02:09:45.657Z,65.39
2023-02-17T02:10:55.516Z,65.35
2023-02-17T02:12:19.733Z,64.95
2023-02-17T02:13:28.881Z,64.97
2023-02-17T02:14:37.972Z,65.08
2023-02-17T02:17:15.603Z,65.10
2023-02-17T02:21:50.609Z,64.36
2023-02-17T02:23:21.554Z,64.58
2023-02-17T02:28:06.520Z,64.81
2023-02-17T02:29:43.233Z,64.71
2023-02-17T02:31:25.230Z,64.80
2023-02-17T02:32:42.089Z,64.73
2023-02-17T02:33:56.268Z,64.51
2023-02-17T02:35:12.266Z,64.32
2023-02-17T02:36:44.086Z,64.56
2023-02-17T02:38:00.522Z,64.82
2023-02-17T02:40:32.893Z,64.70
2023-02-17T02:43:24.979Z,64.56
2023-02-17T02:44:34.940Z,64.09
2023-02-17T02:45:44.566Z,64.40
2023-02-17T02:48:20.514Z,64.53
2023-02-17T02:49:32.761Z,64.31
2023-02-17T02:50:55.021Z,64.42
2023-02-17T02:53:54.332Z,64.60
2023-02-17T02:55:11.152Z,64.64
2023-02-17T02:56:25.264Z,64.68
2023-02-17T02:57:43.958Z,64.71
2023-02-17T03:00:29.457Z,64.23
2023-02-17T03:02:00.047Z,65.03
2023-02-17T03:04:52.969Z,64.37
2023-02-17T03:07:51.749Z,64.99
2023-02-17T03:09:14.414Z,65.28
2023-02-17T03:10:24.493Z,66.04
2023-02-17T03:11:33.731Z,66.25
2023-02-17T03:12:44.615Z,67.06
2023-02-17T03:13:54.356Z,67.32
2023-02-17T03:16:33.838Z,67.56
2023-02-17T03:17:44.733Z,66.76
2023-02-17T03:18:54.688Z,66.45
2023-02-17T03:21:20.158Z,67.22
2023-02-17T03:23:48.456Z,67.01
2023-02-17T03:26:14.732Z,66.40
2023-02-17T03:27:24.416Z,66.16
2023-02-17T03:28:33.520Z,65.21
2023-02-17T03:29:43.776Z,65.31
2023-02-17T03:30:54.763Z,65.89
2023-02-17T03:32:04.765Z,65.67
2023-02-17T03:34:30.220Z,66.58
2023-02-17T03:35:39.862Z,66.89
2023-02-17T03:36:50.631Z,65.93
2023-02-17T03:38:00.623Z,65.79
2023-02-17T03:39:09.680Z,66.61
2023-02-17T03:41:34.970Z,66.67
2023-02-17T03:42:43.506Z,67.04
2023-02-17T03:43:52.591Z,67.20
2023-02-17T03:45:01.098Z,67.54
2023-02-17T03:46:12.510Z,67.44
2023-02-17T03:47:22.821Z,67.05
2023-02-17T03:48:32.242Z,66.37
2023-02-17T03:49:41.772Z,66.41
2023-02-17T03:50:50.868Z,66.63
2023-02-17T03:52:00.535Z,66.67
2023-02-17T03:53:11.427Z,66.38
2023-02-17T03:54:20.889Z,66.17
2023-02-17T03:56:46.325Z,65.93
2023-02-17T03:57:56.077Z,66.03
2023-02-17T03:59:06.749Z,65.99
2023-02-17T04:00:18.409Z,65.91
2023-02-17T04:01:28.160Z,65.19
2023-02-17T04:02:37.669Z,65.12
2023-02-17T04:05:02.960Z,65.05
2023-02-17T04:06:13.122Z,65.39
2023-02-17T04:08:38.992Z,65.92
2023-02-17T04:09:48.113Z,65.66
2023-02-17T04:11:00.813Z,65.46
2023-02-17T04:12:10.376Z,64.87
2023-02-17T04:13:20.316Z,65.18
2023-02-17T04:14:29.741Z,65.23
2023-02-17T04:15:38.885Z,65.13
2023-02-17T04:16:48.698Z,65.13
2023-02-17T04:17:57.789Z,64.75
2023-02-17T04:19:08.069Z,64.44
2023-02-17T04:20:17.906Z,64.35
2023-02-17T04:21:27.590Z,64.19
2023-02-17T04:22:37.679Z,63.92
2023-02-17T04:25:01.475Z,64.39
2023-02-17T04:26:11.636Z,64.62
2023-02-17T04:28:40.591Z,64.91
2023-02-17T04:29:51.400Z,65.01
2023-02-17T04:31:02.319Z,65.06
2023-02-17T04:32:11.029Z,64.97
2023-02-17T04:33:19.574Z,64.73
2023-02-17T04:34:29.466Z,64.36
2023-02-17T04:35:38.853Z,64.27
2023-02-17T04:36:48.820Z,63.95
2023-02-17T04:37:57.950Z,64.09
2023-02-17T04:40:23.664Z,64.32
2023-02-17T04:41:32.551Z,64.43
2023-02-17T04:42:42.114Z,64.64
2023-02-17T04:45:07.329Z,64.60
2023-02-17T04:46:17.093Z,64.59
2023-02-17T04:47:26.314Z,64.47
2023-02-17T04:48:35.925Z,64.38
2023-02-17T04:49:45.618Z,64.48
2023-02-17T04:52:09.161Z,64.05
2023-02-17T04:53:21.742Z,64.06
2023-02-17T04:55:49.251Z,64.19
2023-02-17T04:56:58.547Z,63.65
2023-02-17T04:58:08.924Z,63.68
2023-02-17T04:59:17.467Z,63.46
2023-02-17T05:00:26.774Z,63.17
2023-02-17T05:02:51.800Z,63.74
2023-02-17T05:04:01.395Z,64.13
2023-02-17T05:05:12.179Z,64.02
2023-02-17T05:06:21.267Z,63.78
2023-02-17T05:07:31.308Z,63.58
2023-02-17T05:09:57.025Z,63.93
2023-02-17T05:11:07.450Z,63.94
2023-02-17T05:12:16.984Z,64.71
2023-02-17T05:13:27.568Z,64.52
2023-02-17T05:14:36.866Z,64.76
2023-02-17T05:15:47.304Z,65.32
2023-02-17T05:18:12.463Z,65.55
2023-02-17T05:20:37.532Z,65.80
2023-02-17T05:21:47.179Z,65.81
2023-02-17T05:22:57.448Z,65.29
2023-02-17T05:25:42.720Z,66.28
2023-02-17T05:26:52.122Z,66.32
2023-02-17T05:29:16.258Z,65.92
2023-02-17T05:31:41.047Z,66.13
2023-02-17T05:32:49.854Z,65.52
2023-02-17T05:33:59.033Z,66.24
2023-02-17T05:35:09.185Z,66.34
2023-02-17T05:36:19.095Z,66.51
2023-02-17T05:38:45.429Z,67.87
2023-02-17T05:39:54.471Z,68.17
2023-02-17T05:42:20.463Z,68.74
2023-02-17T05:43:30.219Z,68.83
2023-02-17T05:44:39.718Z,68.40
2023-02-17T05:45:48.968Z,68.22
2023-02-17T05:46:58.086Z,68.33
2023-02-17T05:48:07.198Z,67.53
2023-02-17T05:49:16.734Z,68.18
2023-02-17T05:50:30.589Z,68.14
2023-02-17T05:51:41.114Z,68.10
2023-02-17T05:52:52.146Z,67.87
2023-02-17T05:54:00.660Z,67.49
2023-02-17T05:55:09.294Z,67.88
2023-02-17T05:56:19.433Z,68.36
2023-02-17T05:57:28.093Z,68.72
2023-02-17T05:58:37.230Z,69.48
2023-02-17T05:59:47.805Z,69.77
2023-02-17T06:00:57.188Z,69.74
2023-02-17T06:03:20.806Z,70.60
2023-02-17T06:05:47.138Z,71.08
2023-02-17T06:06:56.235Z,71.08
2023-02-17T06:08:05.143Z,70.85
2023-02-17T06:09:13.660Z,70.99
2023-02-17T06:10:22.676Z,70.68
2023-02-17T06:11:31.425Z,68.92
2023-02-17T06:12:40.746Z,68.28
2023-02-17T06:13:50.043Z,68.20
2023-02-17T06:15:01.660Z,67.91
2023-02-17T06:16:10.801Z,68.08
2023-02-17T06:17:19.321Z,67.35
2023-02-17T06:18:28.104Z,67.56
2023-02-17T06:19:38.902Z,67.99
2023-02-17T06:20:48.674Z,66.46
2023-02-17T06:22:00.379Z,66.91
2023-02-17T06:23:09.557Z,67.47
2023-02-17T06:24:19.098Z,67.88
2023-02-17T06:25:29.730Z,67.22
2023-02-17T06:26:38.469Z,67.67
2023-02-17T06:29:03.156Z,66.84
2023-02-17T06:30:14.392Z,66.43
2023-02-17T06:32:39.217Z,67.40
2023-02-17T06:33:48.493Z,67.91
2023-02-17T06:34:57.427Z,68.55
2023-02-17T06:36:08.888Z,68.69
2023-02-17T06:38:33.858Z,69.17
2023-02-17T06:39:42.856Z,68.58
2023-02-17T06:40:52.531Z,67.84
2023-02-17T06:43:16.152Z,68.61
2023-02-17T06:44:25.295Z,68.74
2023-02-17T06:45:34.824Z,68.78
2023-02-17T06:46:46.450Z,68.88
2023-02-17T06:47:55.076Z,68.57
2023-02-17T06:49:04.440Z,68.57
2023-02-17T06:51:31.248Z,67.59
2023-02-17T06:52:41.050Z,67.13
2023-02-17T06:53:49.932Z,67.51
2023-02-17T06:54:59.504Z,68.47
2023-02-17T06:56:08.955Z,68.19
2023-02-17T06:58:35.329Z,69.04
2023-02-17T06:59:45.507Z,68.81
2023-02-17T07:00:55.377Z,68.21
2023-02-17T07:02:05.436Z,68.32
2023-02-17T07:03:14.109Z,68.34
2023-02-17T07:04:23.098Z,68.56
2023-02-17T07:05:38.161Z,68.75
2023-02-17T07:06:47.826Z,69.37
2023-02-17T07:08:00.324Z,69.53
2023-02-17T07:09:12.833Z,69.94
2023-02-17T07:10:23.376Z,70.25
2023-02-17T07:12:47.559Z,69.49
2023-02-17T07:13:56.390Z,69.90
2023-02-17T07:16:21.208Z,67.96
2023-02-17T07:17:31.029Z,67.85
2023-02-17T07:18:45.514Z,68.43
2023-02-17T07:19:55.182Z,69.16
2023-02-17T07:21:05.972Z,69.58
2023-02-17T07:22:16.495Z,69.69
2023-02-17T07:23:25.609Z,69.97
2023-02-17T07:24:34.619Z,69.42
2023-02-17T07:25:44.156Z,69.46
2023-02-17T07:26:55.910Z,69.87
2023-02-17T07:29:20.180Z,69.17
2023-02-17T07:30:29.175Z,69.47
2023-02-17T07:31:39.017Z,69.34
2023-02-17T07:32:47.812Z,69.53
2023-02-17T07:33:56.618Z,69.38
2023-02-17T07:36:28.775Z,69.44
2023-02-17T07:37:38.078Z,69.74
2023-02-17T07:38:47.158Z,70.30
2023-02-17T07:39:57.250Z,70.04
2023-02-17T07:42:27.083Z,69.99
2023-02-17T07:43:37.015Z,70.03
2023-02-17T07:46:01.611Z,67.79
2023-02-17T07:47:10.262Z,68.41
2023-02-17T07:48:19.384Z,67.81
2023-02-17T07:49:28.154Z,67.54
2023-02-17T07:51:52.919Z,67.35
2023-02-17T07:53:02.408Z,67.83
2023-02-17T07:54:13.208Z,67.63
2023-02-17T07:55:21.628Z,67.92
2023-02-17T07:56:31.891Z,68.06
2023-02-17T07:58:56.343Z,68.91
2023-02-17T08:00:08.639Z,68.75
2023-02-17T08:01:23.449Z,68.47
2023-02-17T08:02:32.970Z,68.11
2023-02-17T08:03:42.518Z,66.52
2023-02-17T08:04:52.233Z,67.28
2023-02-17T08:06:01.814Z,67.55
2023-02-17T08:07:10.480Z,66.77
2023-02-17T08:08:37.734Z,66.62
2023-02-17T08:10:05.620Z,66.57
2023-02-17T08:13:00.727Z,66.14
2023-02-17T08:14:11.554Z,65.98
2023-02-17T08:15:21.165Z,65.91
2023-02-17T08:17:44.931Z,66.12
2023-02-17T08:18:57.691Z,65.64
2023-02-17T08:20:09.564Z,65.58
2023-02-17T08:21:20.315Z,65.61
2023-02-17T08:22:29.871Z,64.42
2023-02-17T08:23:39.033Z,64.69
2023-02-17T08:24:49.241Z,65.15
2023-02-17T08:25:59.796Z,65.50
2023-02-17T08:27:09.363Z,66.51
2023-02-17T08:28:18.383Z,66.14
2023-02-17T08:29:28.178Z,66.25
2023-02-17T08:30:39.468Z,65.50
2023-02-17T08:31:52.006Z,65.74
2023-02-17T08:33:02.129Z,66.33
2023-02-17T08:34:13.544Z,66.38
2023-02-17T08:35:22.677Z,66.34
2023-02-17T08:36:33.253Z,66.38
2023-02-17T08:37:43.276Z,66.43
2023-02-17T08:38:54.076Z,65.42
2023-02-17T08:41:33.778Z,66.25
2023-02-17T08:42:43.147Z,66.24
2023-02-17T08:43:53.075Z,66.54
2023-02-17T08:45:03.521Z,65.69
2023-02-17T08:46:14.008Z,64.81
2023-02-17T08:48:40.142Z,65.62
2023-02-17T08:49:48.771Z,65.98
2023-02-17T08:50:57.585Z,65.05
2023-02-17T08:52:06.680Z,65.10
2023-02-17T08:53:15.738Z,64.59
2023-02-17T08:54:24.829Z,64.81
2023-02-17T08:55:48.557Z,65.34
2023-02-17T08:56:48.741Z,66.19
2023-02-17T08:57:57.341Z,66.09
2023-02-17T09:00:44.188Z,65.98
2023-02-17T09:01:55.077Z,65.71
2023-02-17T09:03:03.846Z,66.02
2023-02-17T09:04:14.771Z,66.07
2023-02-17T09:05:26.096Z,65.83
2023-02-17T09:07:54.082Z,65.05
2023-02-17T09:09:05.491Z,64.78
2023-02-17T09:11:30.391Z,64.36
2023-02-17T09:12:39.934Z,63.87
2023-02-17T09:13:48.507Z,64.41
2023-02-17T09:14:57.020Z,64.50
2023-02-17T09:16:06.990Z,63.31
2023-02-17T09:17:16.715Z,63.42
2023-02-17T09:18:26.534Z,63.79
2023-02-17T09:19:40.429Z,63.53
2023-02-17T09:20:49.555Z,64.14
2023-02-17T09:23:13.475Z,64.67
2023-02-17T09:24:22.220Z,63.62
2023-02-17T09:26:46.576Z,63.94
2023-02-17T09:27:55.509Z,63.78
2023-02-17T09:29:04.973Z,63.62
2023-02-17T09:30:15.195Z,63.38
2023-02-17T09:31:26.263Z,63.30
2023-02-17T09:32:36.413Z,62.61
2023-02-17T09:33:48.193Z,63.25
2023-02-17T09:35:00.290Z,63.79
2023-02-17T09:37:28.947Z,63.62
2023-02-17T09:38:40.984Z,62.88
2023-02-17T09:39:49.878Z,63.09
2023-02-17T09:42:24.848Z,63.73
2023-02-17T09:43:34.761Z,63.84
2023-02-17T09:44:47.755Z,63.54
2023-02-17T09:47:22.891Z,62.47
2023-02-17T09:48:34.058Z,62.16
2023-02-17T09:49:44.660Z,62.57
2023-02-17T09:52:28.829Z,63.22
2023-02-17T09:55:13.120Z,63.34
2023-02-17T09:59:16.636Z,62.71
2023-02-17T10:00:29.080Z,62.89
2023-02-17T10:01:40.291Z,63.29
2023-02-17T10:03:08.495Z,63.39
2023-02-17T10:05:54.788Z,64.05
2023-02-17T10:07:19.655Z,63.48
2023-02-17T10:08:52.981Z,63.30
2023-02-17T10:11:41.368Z,63.86
2023-02-17T10:12:54.278Z,63.71
2023-02-17T10:14:23.164Z,63.61
2023-02-17T10:16:56.888Z,62.37
2023-02-17T10:19:53.455Z,62.87
2023-02-17T10:21:09.954Z,62.74
2023-02-17T10:22:23.438Z,62.50
2023-02-17T10:25:19.548Z,62.62
2023-02-17T10:26:50.245Z,62.26
2023-02-17T10:31:10.539Z,61.75
2023-02-17T10:32:25.961Z,62.15
2023-02-17T10:35:19.956Z,62.02
2023-02-17T10:36:42.435Z,61.88
2023-02-17T10:37:57.995Z,61.67
2023-02-17T10:40:50.615Z,61.77
2023-02-17T10:42:01.803Z,61.76
2023-02-17T10:43:13.091Z,61.78
2023-02-17T10:44:25.085Z,61.42
2023-02-17T10:45:44.698Z,62.04
2023-02-17T10:46:55.627Z,62.26
2023-02-17T10:48:07.004Z,62.23
2023-02-17T10:50:39.910Z,61.65
2023-02-17T10:51:48.326Z,61.69
2023-02-17T10:55:40.400Z,61.89
2023-02-17T10:56:52.882Z,62.17
2023-02-17T10:58:05.943Z,62.41
2023-02-17T11:00:34.537Z,61.90
2023-02-17T11:01:44.056Z,62.16
2023-02-17T11:02:53.740Z,62.76
2023-02-17T11:04:12.937Z,62.88
2023-02-17T11:05:24.003Z,62.67
2023-02-17T11:07:59.069Z,62.21
2023-02-17T11:09:20.787Z,61.55
2023-02-17T11:10:39.028Z,61.64
2023-02-17T11:13:29.173Z,61.61
2023-02-17T11:14:40.357Z,61.59
2023-02-17T11:15:49.070Z,61.77
2023-02-17T11:17:01.247Z,61.62
2023-02-17T11:18:19.903Z,61.23
2023-02-17T11:19:37.362Z,61.77
2023-02-17T11:20:48.430Z,61.49
2023-02-17T11:22:00.258Z,61.30
2023-02-17T11:23:24.546Z,61.35
2023-02-17T11:24:35.491Z,61.35
2023-02-17T11:27:12.082Z,61.23
2023-02-17T11:29:39.147Z,61.12
2023-02-17T11:30:55.813Z,61.50
2023-02-17T11:32:08.257Z,61.80
2023-02-17T11:33:39.277Z,60.85
2023-02-17T11:34:49.531Z,61.24
2023-02-17T11:35:59.796Z,60.41
2023-02-17T11:37:13.038Z,60.68
2023-02-17T11:39:56.523Z,60.63
2023-02-17T11:41:07.773Z,61.16
2023-02-17T11:42:26.033Z,61.45
2023-02-17T11:44:54.191Z,61.15
2023-02-17T11:46:13.058Z,61.04
2023-02-17T11:47:59.162Z,61.06
2023-02-17T11:50:58.057Z,60.85
2023-02-17T11:54:02.239Z,60.98
2023-02-17T11:55:21.062Z,60.89
2023-02-17T11:56:36.158Z,61.01
2023-02-17T11:57:51.809Z,60.85
2023-02-17T11:59:24.099Z,60.40
2023-02-17T12:00:44.630Z,59.82
2023-02-17T12:05:13.357Z,61.43
2023-02-17T12:08:25.350Z,60.65
2023-02-17T12:11:20.706Z,61.13
2023-02-17T12:14:21.676Z,60.96
2023-02-17T12:17:07.338Z,61.48
2023-02-17T12:20:02.063Z,61.56
2023-02-17T12:21:23.873Z,61.37
2023-02-17T12:22:55.839Z,60.45
2023-02-17T12:24:25.556Z,61.32
2023-02-17T12:27:31.748Z,61.81
2023-02-17T12:30:25.304Z,62.59
2023-02-17T12:31:52.927Z,62.76
2023-02-17T12:34:45.059Z,62.28
2023-02-17T12:37:26.058Z,61.71
2023-02-17T12:39:58.423Z,61.44
2023-02-17T12:42:33.879Z,61.59
2023-02-17T12:43:49.181Z,61.66
2023-02-17T12:46:24.618Z,61.40
2023-02-17T12:47:49.053Z,61.28
2023-02-17T12:49:29.706Z,61.24
2023-02-17T12:50:51.818Z,60.82
2023-02-17T12:53:32.620Z,61.39
2023-02-17T12:54:53.882Z,61.75
2023-02-17T12:57:48.878Z,61.49
2023-02-17T12:59:22.358Z,61.09
2023-02-17T13:00:38.136Z,61.29
2023-02-17T13:01:56.918Z,61.11
2023-02-17T13:03:06.381Z,61.82
2023-02-17T13:04:19.460Z,61.81
2023-02-17T13:05:50.596Z,62.19
2023-02-17T13:07:23.652Z,62.25
2023-02-17T13:08:38.775Z,62.25
2023-02-17T13:09:52.320Z,61.81
2023-02-17T13:12:27.266Z,61.23
2023-02-17T13:13:36.206Z,61.49
2023-02-17T13:14:48.476Z,61.77
2023-02-17T13:16:14.621Z,61.95
2023-02-17T13:17:29.850Z,62.09
2023-02-17T13:18:41.853Z,62.16
2023-02-17T13:20:13.363Z,61.64
2023-02-17T13:21:27.548Z,61.87
2023-02-17T13:22:43.626Z,61.75
2023-02-17T13:25:32.049Z,61.06
2023-02-17T13:26:43.060Z,61.33
2023-02-17T13:27:53.012Z,61.00
2023-02-17T13:29:25.214Z,61.16
2023-02-17T13:30:45.305Z,60.67
2023-02-17T13:31:58.390Z,61.63
2023-02-17T13:33:22.906Z,62.52
2023-02-17T13:34:37.286Z,62.03
2023-02-17T13:35:47.595Z,62.17
2023-02-17T13:36:58.134Z,62.17
2023-02-17T13:38:10.671Z,62.19
2023-02-17T13:40:47.727Z,61.74
2023-02-17T13:41:59.451Z,61.32
2023-02-17T13:44:35.693Z,61.61
2023-02-17T13:48:42.334Z,63.17
2023-02-17T13:51:12.865Z,62.66
2023-02-17T13:52:28.669Z,62.23
2023-02-17T13:53:40.330Z,62.70
2023-02-17T13:55:00.765Z,62.74
2023-02-17T13:56:13.406Z,62.49
2023-02-17T13:58:41.856Z,61.96
2023-02-17T13:59:50.384Z,61.89
2023-02-17T14:01:00.577Z,61.98
2023-02-17T14:02:16.162Z,61.56
2023-02-17T14:03:32.012Z,60.78
2023-02-17T14:04:42.396Z,61.13
2023-02-17T14:07:11.988Z,61.76
2023-02-17T14:08:26.086Z,62.22
2023-02-17T14:09:36.523Z,62.16
2023-02-17T14:10:45.989Z,62.29
2023-02-17T14:11:56.844Z,61.77
2023-02-17T14:13:08.202Z,62.08
2023-02-17T14:14:17.821Z,61.75
2023-02-17T14:16:47.896Z,62.39
2023-02-17T14:17:56.785Z,62.37
2023-02-17T14:19:09.186Z,62.39
2023-02-17T14:22:01.392Z,62.55
2023-02-17T14:23:15.215Z,62.37
2023-02-17T14:24:27.837Z,61.77
2023-02-17T14:25:39.672Z,61.75
2023-02-17T14:27:01.753Z,62.45
2023-02-17T14:28:25.203Z,62.28
2023-02-17T14:31:12.195Z,62.44
2023-02-17T14:32:31.036Z,62.49
2023-02-17T14:33:39.903Z,61.88
2023-02-17T14:34:49.620Z,61.82
2023-02-17T14:36:09.486Z,61.66
2023-02-17T14:38:41.046Z,61.91
2023-02-17T14:39:50.470Z,61.72
2023-02-17T14:41:00.702Z,62.48
2023-02-17T14:42:10.112Z,62.71
2023-02-17T14:43:18.935Z,62.52
2023-02-17T14:45:43.173Z,62.13
2023-02-17T14:48:08.251Z,62.98
2023-02-17T14:49:17.538Z,63.31
2023-02-17T14:50:27.343Z,63.44
2023-02-17T14:51:38.951Z,63.50
2023-02-17T14:54:15.970Z,62.53
2023-02-17T14:57:03.143Z,63.13
2023-02-17T14:59:37.667Z,62.90
2023-02-17T15:00:49.978Z,62.93
2023-02-17T15:03:14.678Z,62.71
2023-02-17T15:04:23.780Z,62.57
2023-02-17T15:06:50.584Z,62.68
2023-02-17T15:09:22.858Z,62.92
2023-02-17T15:10:33.474Z,63.19
2023-02-17T15:11:45.160Z,63.03
2023-02-17T15:12:55.395Z,62.79
2023-02-17T15:15:21.651Z,62.79
2023-02-17T15:16:30.865Z,62.92
2023-02-17T15:17:39.594Z,62.86
2023-02-17T15:18:50.095Z,62.85
2023-02-17T15:20:00.185Z,62.74
2023-02-17T15:22:27.291Z,63.00
2023-02-17T15:23:37.663Z,62.89
2023-02-17T15:24:46.364Z,63.27
2023-02-17T15:25:56.481Z,63.73
2023-02-17T15:28:26.828Z,64.02
2023-02-17T15:29:36.266Z,63.64
2023-02-17T15:30:53.489Z,63.64
2023-02-17T15:33:24.284Z,63.24
2023-02-17T15:34:34.627Z,63.56
2023-02-17T15:35:44.136Z,63.30
2023-02-17T15:36:54.106Z,63.02
2023-02-17T15:38:02.872Z,62.85
2023-02-17T15:39:13.694Z,62.87
2023-02-17T15:41:43.044Z,62.95
2023-02-17T15:42:56.296Z,62.96
2023-02-17T15:44:06.949Z,63.15
2023-02-17T15:45:19.706Z,63.41
2023-02-17T15:47:50.754Z,63.76
2023-02-17T15:50:19.228Z,63.99
2023-02-17T15:51:27.936Z,63.93
2023-02-17T15:52:36.779Z,63.79
2023-02-17T15:53:46.493Z,63.75
2023-02-17T15:54:55.138Z,63.90
2023-02-17T15:57:25.260Z,64.07
2023-02-17T15:58:36.667Z,64.03
2023-02-17T15:59:45.379Z,64.40
2023-02-17T16:00:59.771Z,64.21
2023-02-17T16:03:26.951Z,64.18
2023-02-17T16:04:36.997Z,63.88
2023-02-17T16:05:46.272Z,64.05
2023-02-17T16:06:56.617Z,64.16
2023-02-17T16:08:06.651Z,64.09
2023-02-17T16:09:15.907Z,64.28
2023-02-17T16:10:27.297Z,64.83
2023-02-17T16:11:40.269Z,65.05
2023-02-17T16:12:51.606Z,65.54
2023-02-17T16:14:00.852Z,65.73
2023-02-17T16:15:18.951Z,65.33
2023-02-17T16:17:49.070Z,65.67
2023-02-17T16:19:00.124Z,66.17
2023-02-17T16:21:31.264Z,65.22
2023-02-17T16:22:42.433Z,65.22
2023-02-17T16:23:53.200Z,65.35
2023-02-17T16:25:04.466Z,65.83
2023-02-17T16:26:33.447Z,66.05
2023-02-17T16:28:59.982Z,66.20
2023-02-17T16:30:24.345Z,66.51
2023-02-17T16:31:35.016Z,67.10
2023-02-17T16:32:46.361Z,66.79
2023-02-17T16:33:57.295Z,66.62
2023-02-17T16:35:06.166Z,66.72
2023-02-17T16:37:35.210Z,66.78
2023-02-17T16:38:45.066Z,66.82
2023-02-17T16:39:53.730Z,66.97
2023-02-17T16:41:02.967Z,67.53
2023-02-17T16:42:15.345Z,68.12
2023-02-17T16:44:43.887Z,67.71
2023-02-17T16:45:58.470Z,67.53
2023-02-17T16:47:11.857Z,67.48
2023-02-17T16:48:25.134Z,67.51
2023-02-17T16:49:38.083Z,67.51
2023-02-17T16:50:46.701Z,67.91
2023-02-17T16:51:55.323Z,67.83
2023-02-17T16:53:08.210Z,67.90
2023-02-17T16:54:18.038Z,68.16
2023-02-17T16:55:30.446Z,68.78
2023-02-17T16:58:02.619Z,68.77
2023-02-17T16:59:17.013Z,68.63
2023-02-17T17:00:31.021Z,68.58
2023-02-17T17:01:41.130Z,68.93
2023-02-17T17:02:51.215Z,69.04
2023-02-17T17:03:59.902Z,69.40
2023-02-17T17:05:10.158Z,69.36
2023-02-17T17:06:23.312Z,69.20
2023-02-17T17:07:32.644Z,69.41
2023-02-17T17:08:41.188Z,69.29
2023-02-17T17:10:14.838Z,69.39
2023-02-17T17:11:01.192Z,69.61
2023-02-17T17:12:11.146Z,69.76
2023-02-17T17:14:35.450Z,70.50
2023-02-17T17:15:46.362Z,70.28
2023-02-17T17:16:56.604Z,70.01
2023-02-17T17:18:08.687Z,69.96
2023-02-17T17:19:17.851Z,69.90
2023-02-17T17:20:32.423Z,69.85
2023-02-17T17:21:41.138Z,69.73
2023-02-17T17:22:51.094Z,69.57
2023-02-17T17:24:10.752Z,69.49
2023-02-17T17:25:20.254Z,69.61
2023-02-17T17:26:38.716Z,69.54
2023-02-17T17:27:47.382Z,69.59
2023-02-17T17:28:57.873Z,70.16
2023-02-17T17:31:24.480Z,70.14
2023-02-17T17:32:34.260Z,70.27
2023-02-17T17:33:43.678Z,70.36
2023-02-17T17:34:54.920Z,70.28
2023-02-17T17:37:23.600Z,70.13
2023-02-17T17:38:32.130Z,69.90
2023-02-17T17:39:41.771Z,69.75
2023-02-17T17:40:52.908Z,69.55
2023-02-17T17:42:01.567Z,69.43
2023-02-17T17:43:10.230Z,69.67
2023-02-17T17:44:20.163Z,69.67
2023-02-17T17:45:30.007Z,69.39
2023-02-17T17:47:55.206Z,69.47
2023-02-17T17:49:06.545Z,69.44
2023-02-17T17:51:34.833Z,69.71
2023-02-17T17:52:45.694Z,69.66
2023-02-17T17:53:54.300Z,69.82
2023-02-17T17:56:23.710Z,69.90
2023-02-17T17:57:32.407Z,69.98
2023-02-17T17:58:41.153Z,70.20
2023-02-17T17:59:50.914Z,70.22
2023-02-17T18:01:00.888Z,70.36
2023-02-17T18:02:10.408Z,70.77
2023-02-17T18:03:19.789Z,71.05
2023-02-17T18:04:28.802Z,70.94
2023-02-17T18:05:38.252Z,70.97
2023-02-17T18:06:51.593Z,70.95
2023-02-17T18:08:01.033Z,70.71
2023-02-17T18:09:25.828Z,70.66
2023-02-17T18:10:29.405Z,70.57
2023-02-17T18:11:42.186Z,70.18
2023-02-17T18:12:51.206Z,69.92
2023-02-17T18:14:03.486Z,69.69
2023-02-17T18:15:13.505Z,69.57
2023-02-17T18:16:26.407Z,69.57
2023-02-17T18:17:38.984Z,69.62
2023-02-17T18:18:50.341Z,69.73
2023-02-17T18:21:16.206Z,69.85
2023-02-17T18:22:25.740Z,69.58
2023-02-17T18:23:34.659Z,69.52
2023-02-17T18:24:45.278Z,69.55
2023-02-17T18:25:54.363Z,69.61
2023-02-17T18:27:04.732Z,69.67
2023-02-17T18:28:13.562Z,69.73
2023-02-17T18:29:22.304Z,69.88
2023-02-17T18:30:31.575Z,70.07
2023-02-17T18:31:40.334Z,70.32
2023-02-17T18:32:50.753Z,70.61
2023-02-17T18:35:16.962Z,71.18
2023-02-17T18:36:28.081Z,71.04
2023-02-17T18:38:55.329Z,70.94
2023-02-17T18:40:05.603Z,70.84
2023-02-17T18:42:44.869Z,70.45
2023-02-17T18:43:55.104Z,70.32
2023-02-17T18:45:05.634Z,70.36
2023-02-17T18:46:14.363Z,69.95
2023-02-17T18:47:23.865Z,69.94
2023-02-17T18:48:33.499Z,69.75
2023-02-17T18:49:42.014Z,69.34
2023-02-17T18:50:51.749Z,69.14
2023-02-17T18:52:00.825Z,69.34
2023-02-17T18:53:10.694Z,69.45
2023-02-17T18:54:20.016Z,69.28
2023-02-17T18:55:28.822Z,69.38
2023-02-17T18:56:38.777Z,69.47
2023-02-17T18:57:47.856Z,69.58
2023-02-17T18:58:57.307Z,69.79
2023-02-17T19:00:09.421Z,69.96
2023-02-17T19:02:41.813Z,70.42
2023-02-17T19:03:52.880Z,70.69
2023-02-17T19:05:01.372Z,70.96
2023-02-17T19:06:15.268Z,71.44
2023-02-17T19:07:24.366Z,71.75
2023-02-17T19:08:33.044Z,71.82
2023-02-17T19:09:42.716Z,71.92
2023-02-17T19:10:51.656Z,71.80
2023-02-17T19:12:01.155Z,71.78
2023-02-17T19:13:10.063Z,71.64
2023-02-17T19:14:19.078Z,71.52
2023-02-17T19:15:28.562Z,71.29
2023-02-17T19:16:38.560Z,71.13
2023-02-17T19:17:48.558Z,71.07
2023-02-17T19:18:58.282Z,71.01
2023-02-17T19:20:08.654Z,70.72